createdAt,value
2019-01-17T00:08:24.000Z,38.657
2019-01-17T00:18:24.000Z,38.836
2019-01-17T00:28:24.000Z,38.779
2019-01-17T00:38:24.000Z,38.979
2019-01-17T00:48:24.000Z,38.771
2019-01-17T00:58:24.000Z,39.112
2019-01-17T01:08:24.000Z,39.334
2019-01-17T01:18:24.000Z,39.255
2019-01-17T01:28:27.000Z,39.424
2019-01-17T01:38:24.000Z,39.616
2019-01-17T01:48:24.000Z,39.418
2019-01-17T01:58:24.000Z,39.6
2019-01-17T02:08:24.000Z,39.628
2019-01-17T02:28:24.000Z,39.591
2019-01-17T02:38:24.000Z,39.492
2019-01-17T02:48:24.000Z,39.8
2019-01-17T02:58:24.000Z,39.701
2019-01-17T03:08:24.000Z,39.731
2019-01-17T03:18:24.000Z,39.74
2019-01-17T03:28:26.000Z,39.629
2019-01-17T03:38:24.000Z,39.423
2019-01-17T03:48:24.000Z,39.431
2019-01-17T03:58:24.000Z,39.515
2019-01-17T04:08:24.000Z,39.318
2019-01-17T04:18:24.000Z,39.681
2019-01-17T04:28:24.000Z,39.839
2019-01-17T04:38:24.000Z,39.751
2019-01-17T04:48:24.000Z,40.007
2019-01-17T04:58:24.000Z,39.823
2019-01-17T05:08:24.000Z,39.854
2019-01-17T05:18:24.000Z,39.592
2019-01-17T05:28:24.000Z,39.538
2019-01-17T05:38:24.000Z,39.353
2019-01-17T05:48:24.000Z,39.182
2019-01-17T05:58:24.000Z,39.083
2019-01-17T06:08:24.000Z,39.082
2019-01-17T06:18:24.000Z,39.262
2019-01-17T06:28:24.000Z,39.153
2019-01-17T06:38:25.000Z,39.282
2019-01-17T06:48:24.000Z,38.925
2019-01-17T06:58:24.000Z,38.655
2019-01-17T07:08:24.000Z,38.159
2019-01-17T07:18:24.000Z,38.131
2019-01-17T07:28:24.000Z,37.733
2019-01-17T07:38:25.000Z,37.885
2019-01-17T07:48:25.000Z,38.015
2019-01-17T07:58:27.000Z,37.983
2019-01-17T08:08:25.000Z,37.951
2019-01-17T08:18:25.000Z,37.876
2019-01-17T08:28:25.000Z,37.586
2019-01-17T08:38:25.000Z,37.416
2019-01-17T08:48:25.000Z,37.438
2019-01-17T08:58:25.000Z,37.46
2019-01-17T09:08:25.000Z,37.378
2019-01-17T09:18:25.000Z,37.401
2019-01-17T09:28:25.000Z,37.198
2019-01-17T09:38:25.000Z,37.058
2019-01-17T09:48:25.000Z,37.005
2019-01-17T09:58:25.000Z,36.92
2019-01-17T10:08:25.000Z,36.912
2019-01-17T10:18:25.000Z,36.966
2019-01-17T10:28:25.000Z,36.761
2019-01-17T10:38:25.000Z,36.664
2019-01-17T10:48:25.000Z,36.708
2019-01-17T10:58:25.000Z,36.577
2019-01-17T11:08:25.000Z,36.727
2019-01-17T11:18:25.000Z,36.663
2019-01-17T11:28:25.000Z,36.49
2019-01-17T11:38:25.000Z,36.5
2019-01-17T11:48:25.000Z,36.456
2019-01-17T11:58:25.000Z,36.552
2019-01-17T12:08:25.000Z,36.402
2019-01-17T12:18:25.000Z,36.508
2019-01-17T12:28:25.000Z,36.648
2019-01-17T12:38:25.000Z,36.519
2019-01-17T12:48:25.000Z,36.42
2019-01-17T12:58:25.000Z,36.507
2019-01-17T13:08:25.000Z,36.207
2019-01-17T13:18:25.000Z,36.227
2019-01-17T13:28:25.000Z,36.292
2019-01-17T13:38:26.000Z,36.142
2019-01-17T13:48:25.000Z,36.475
2019-01-17T13:58:25.000Z,36.497
2019-01-17T14:08:25.000Z,36.345
2019-01-17T14:18:25.000Z,36.506
2019-01-17T14:28:25.000Z,36.409
2019-01-17T14:38:25.000Z,35.29
2019-01-17T14:48:27.000Z,35.364
2019-01-17T14:58:25.000Z,35.152
2019-01-17T15:08:25.000Z,35.338
2019-01-17T15:18:25.000Z,35.558
2019-01-17T15:28:26.000Z,36.104
2019-01-17T15:38:26.000Z,36.496
2019-01-17T15:48:26.000Z,36.753
2019-01-17T15:58:26.000Z,37.219
2019-01-17T16:08:26.000Z,37.434
2019-01-17T16:18:26.000Z,37.72
2019-01-17T16:28:26.000Z,37.624
2019-01-17T16:38:26.000Z,37.557
2019-01-17T16:48:26.000Z,37.611
2019-01-17T16:58:26.000Z,37.716
2019-01-17T17:08:26.000Z,37.511
2019-01-17T17:18:26.000Z,37.595
2019-01-17T17:28:26.000Z,37.66
2019-01-17T17:38:26.000Z,37.551
2019-01-17T17:48:26.000Z,37.615
2019-01-17T17:58:26.000Z,37.496
2019-01-17T18:08:26.000Z,37.539
2019-01-17T18:18:26.000Z,37.711
2019-01-17T18:28:26.000Z,37.614
2019-01-17T18:38:26.000Z,37.624
2019-01-17T18:48:26.000Z,37.549
2019-01-17T18:58:27.000Z,37.473
2019-01-17T19:08:26.000Z,37.603
2019-01-17T19:18:26.000Z,37.592
2019-01-17T19:28:26.000Z,37.765
2019-01-17T19:38:26.000Z,37.603
2019-01-17T19:48:26.000Z,37.693
2019-01-17T19:58:26.000Z,37.692
2019-01-17T20:08:26.000Z,38.034
2019-01-17T20:28:26.000Z,37.796
2019-01-17T20:38:26.000Z,37.342
2019-01-17T20:48:26.000Z,37.067
2019-01-17T20:58:26.000Z,37.342
2019-01-17T21:08:26.000Z,37.556
2019-01-17T21:18:27.000Z,37.468
2019-01-17T21:28:26.000Z,37.373
2019-01-17T21:38:26.000Z,37.225
2019-01-17T21:48:26.000Z,37.227
2019-01-17T21:58:26.000Z,36.925
2019-01-17T22:08:26.000Z,37.037
2019-01-17T22:18:26.000Z,36.099
2019-01-17T22:28:26.000Z,36.208
2019-01-17T22:38:26.000Z,36.339
2019-01-17T22:48:26.000Z,37.065
2019-01-17T22:58:26.000Z,37.698
2019-01-17T23:08:26.000Z,37.314
2019-01-17T23:18:27.000Z,36.693
2019-01-17T23:28:26.000Z,36.291
2019-01-17T23:38:26.000Z,36.598
2019-01-17T23:48:26.000Z,36.508
2019-01-17T23:58:27.000Z,36.538
